createdAt,value
2022-08-22T00:00:17.196Z,4.50
2022-08-22T00:01:31.822Z,6.10
2022-08-22T00:02:34.964Z,5.00
2022-08-22T00:02:47.468Z,4.70
2022-08-22T00:02:53.437Z,6.90
2022-08-22T00:03:01.918Z,5.50
2022-08-22T00:03:03.567Z,7.20
2022-08-22T00:03:04.493Z,5.60
2022-08-22T00:03:09.504Z,11.70
2022-08-22T00:03:09.594Z,7.10
2022-08-22T00:03:10.195Z,8.90
2022-08-22T00:03:11.647Z,10.70
2022-08-22T00:03:26.022Z,5.40
2022-08-22T00:04:18.997Z,5.80
2022-08-22T00:05:10.921Z,5.20
2022-08-22T00:05:47.114Z,5.10
2022-08-22T00:06:51.404Z,4.80
2022-08-22T00:07:43.495Z,5.20
2022-08-22T00:08:37.152Z,6.00
2022-08-22T00:09:29.986Z,4.40
2022-08-22T00:10:03.141Z,4.50
2022-08-22T00:11:03.599Z,6.10
2022-08-22T00:12:04.794Z,6.70
2022-08-22T00:12:49.066Z,5.00
2022-08-22T00:13:34.306Z,4.90
2022-08-22T00:14:22.208Z,8.50
2022-08-22T00:15:06.228Z,4.80
2022-08-22T00:15:47.769Z,5.20
2022-08-22T00:16:35.681Z,7.60
2022-08-22T00:17:32.571Z,5.40
2022-08-22T00:18:17.697Z,5.60
2022-08-22T00:18:52.184Z,6.90
2022-08-22T00:19:28.548Z,6.60
2022-08-22T00:20:28.293Z,7.90
2022-08-22T00:21:26.141Z,6.30
2022-08-22T00:21:59.228Z,6.70
2022-08-22T00:23:22.888Z,5.70
2022-08-22T00:24:17.858Z,5.70
2022-08-22T00:25:03.207Z,5.20
2022-08-22T00:25:50.935Z,6.10
2022-08-22T00:26:52.965Z,7.30
2022-08-22T00:27:45.026Z,5.50
2022-08-22T00:28:42.890Z,6.90
2022-08-22T00:29:33.824Z,5.50
2022-08-22T00:30:16.173Z,6.50
2022-08-22T00:31:07.898Z,4.90
2022-08-22T00:31:47.473Z,8.80
2022-08-22T00:32:29.714Z,5.30
2022-08-22T00:33:12.316Z,5.00
2022-08-22T00:33:56.146Z,8.30
2022-08-22T00:34:58.699Z,6.00
2022-08-22T00:35:45.291Z,4.90
2022-08-22T00:36:38.228Z,5.60
2022-08-22T00:37:29.389Z,4.60
2022-08-22T00:38:53.283Z,6.50
2022-08-22T00:39:34.235Z,4.70
2022-08-22T00:40:19.719Z,8.80
2022-08-22T00:41:16.781Z,6.20
2022-08-22T00:42:12.791Z,6.40
2022-08-22T00:43:21.127Z,6.00
2022-08-22T00:44:03.219Z,4.80
2022-08-22T00:45:05.739Z,5.30
2022-08-22T00:45:59.381Z,5.40
2022-08-22T00:46:52.327Z,4.90
2022-08-22T00:47:31.626Z,7.40
2022-08-22T00:48:35.845Z,6.10
2022-08-22T00:49:38.326Z,10.40
2022-08-22T00:50:44.996Z,4.80
2022-08-22T00:51:39.901Z,4.30
2022-08-22T00:52:31.617Z,6.00
2022-08-22T00:53:23.094Z,5.80
2022-08-22T00:54:44.430Z,4.60
2022-08-22T00:56:02.913Z,6.00
2022-08-22T00:57:06.223Z,6.70
2022-08-22T00:58:18.090Z,5.00
2022-08-22T00:59:53.752Z,6.00
2022-08-22T01:00:34.341Z,4.80
2022-08-22T01:01:13.897Z,4.90
2022-08-22T01:02:18.426Z,5.70
2022-08-22T01:03:16.489Z,6.20
2022-08-22T01:04:26.328Z,7.60
2022-08-22T01:05:02.340Z,5.30
2022-08-22T01:05:59.996Z,7.20
2022-08-22T01:06:49.296Z,5.60
2022-08-22T01:07:22.417Z,6.00
2022-08-22T01:08:16.366Z,5.50
2022-08-22T01:09:18.467Z,7.40
2022-08-22T01:10:18.784Z,5.40
2022-08-22T01:10:54.689Z,6.60
2022-08-22T01:11:33.963Z,5.20
2022-08-22T01:12:16.007Z,5.30
2022-08-22T01:13:22.023Z,5.30
2022-08-22T01:14:34.374Z,4.40
2022-08-22T01:15:13.414Z,5.80
2022-08-22T01:15:50.234Z,6.00
2022-08-22T01:16:40.957Z,5.00
2022-08-22T01:17:36.204Z,5.10
2022-08-22T01:18:09.500Z,5.90
2022-08-22T01:19:10.592Z,6.70
2022-08-22T01:19:59.365Z,5.70
2022-08-22T01:20:59.792Z,10.30
2022-08-22T01:21:51.542Z,5.70
2022-08-22T01:22:33.837Z,5.90
2022-08-22T01:23:16.148Z,4.60
2022-08-22T01:24:27.558Z,5.60
2022-08-22T01:25:22.434Z,9.70
2022-08-22T01:26:44.052Z,7.00
2022-08-22T01:27:48.507Z,5.90
2022-08-22T01:28:29.694Z,12.00
2022-08-22T01:29:35.470Z,4.80
2022-08-22T01:30:17.115Z,10.00
2022-08-22T01:30:50.846Z,7.70
2022-08-22T01:31:36.318Z,5.50
2022-08-22T01:32:12.370Z,6.60
2022-08-22T01:33:23.019Z,4.90
2022-08-22T01:34:41.334Z,5.80
2022-08-22T01:35:48.911Z,9.10
2022-08-22T01:36:22.040Z,7.20
2022-08-22T01:37:07.577Z,5.80
2022-08-22T01:38:05.186Z,5.40
2022-08-22T01:38:44.107Z,7.10
2022-08-22T01:39:17.197Z,5.70
2022-08-22T01:39:59.946Z,9.40
2022-08-22T01:41:02.225Z,5.50
2022-08-22T01:41:52.216Z,5.10
2022-08-22T01:42:38.414Z,7.00
2022-08-22T01:44:00.388Z,5.50
2022-08-22T01:44:57.419Z,5.60
2022-08-22T01:45:39.706Z,7.40
2022-08-22T01:46:34.097Z,6.70
2022-08-22T01:47:24.211Z,8.10
2022-08-22T01:48:17.295Z,8.20
2022-08-22T01:49:26.574Z,6.60
2022-08-22T01:50:24.473Z,6.40
2022-08-22T01:51:12.144Z,7.00
2022-08-22T01:52:10.037Z,5.90
2022-08-22T01:52:47.999Z,6.90
2022-08-22T01:53:24.578Z,8.20
2022-08-22T01:54:14.544Z,5.00
2022-08-22T01:55:26.464Z,7.20
2022-08-22T01:56:43.543Z,4.70
2022-08-22T01:57:19.015Z,9.90
2022-08-22T01:57:59.891Z,6.80
2022-08-22T01:58:37.867Z,5.20
2022-08-22T01:59:20.876Z,8.30
2022-08-22T02:00:08.448Z,5.50
2022-08-22T02:01:06.038Z,5.30
2022-08-22T02:02:00.740Z,5.80
2022-08-22T02:02:45.119Z,7.00
2022-08-22T02:03:31.289Z,5.90
2022-08-22T02:04:32.406Z,5.60
2022-08-22T02:05:17.644Z,7.80
2022-08-22T02:06:04.451Z,4.80
2022-08-22T02:06:40.837Z,8.30
2022-08-22T02:07:24.196Z,5.60
2022-08-22T02:08:32.580Z,6.40
2022-08-22T02:09:23.758Z,4.90
2022-08-22T02:11:03.080Z,5.10
2022-08-22T02:11:58.584Z,5.50
2022-08-22T02:12:46.836Z,5.00
2022-08-22T02:13:26.140Z,6.30
2022-08-22T02:14:13.708Z,6.30
2022-08-22T02:15:06.526Z,5.40
2022-08-22T02:15:39.897Z,7.60
2022-08-22T02:16:18.435Z,5.90
2022-08-22T02:17:12.864Z,10.90
2022-08-22T02:18:04.346Z,6.00
2022-08-22T02:19:10.907Z,7.90
2022-08-22T02:19:56.737Z,6.20
2022-08-22T02:20:47.966Z,5.60
2022-08-22T02:21:41.971Z,5.30
2022-08-22T02:22:31.619Z,5.20
2022-08-22T02:23:25.774Z,5.90
2022-08-22T02:24:04.128Z,6.00
2022-08-22T02:25:08.978Z,7.10
2022-08-22T02:26:28.353Z,8.70
2022-08-22T02:27:31.709Z,4.90
2022-08-22T02:28:14.711Z,6.30
2022-08-22T02:29:11.023Z,5.60
2022-08-22T02:29:58.086Z,6.30
2022-08-22T02:30:50.019Z,6.20
2022-08-22T02:31:34.755Z,8.40
2022-08-22T02:32:25.366Z,6.80
2022-08-22T02:33:07.540Z,5.80
2022-08-22T02:33:46.845Z,5.20
2022-08-22T02:34:34.333Z,5.50
2022-08-22T02:35:16.488Z,5.80
2022-08-22T02:36:00.535Z,10.20
2022-08-22T02:36:52.041Z,7.40
2022-08-22T02:37:40.459Z,5.40
2022-08-22T02:38:58.435Z,9.70
2022-08-22T02:39:46.439Z,6.40
2022-08-22T02:40:35.811Z,6.10
2022-08-22T02:41:44.435Z,6.90
2022-08-22T02:42:17.851Z,7.00
2022-08-22T02:43:12.978Z,8.10
2022-08-22T02:44:06.075Z,5.20
2022-08-22T02:44:51.017Z,9.40
2022-08-22T02:45:53.529Z,7.20
2022-08-22T02:47:05.507Z,8.00
2022-08-22T02:47:53.592Z,6.60
2022-08-22T02:48:42.309Z,7.20
2022-08-22T02:49:33.546Z,7.20
2022-08-22T02:50:37.056Z,8.00
2022-08-22T02:51:29.086Z,6.90
2022-08-22T02:52:21.956Z,5.60
2022-08-22T02:53:02.632Z,5.70
2022-08-22T02:54:00.727Z,7.30
2022-08-22T02:54:46.057Z,4.70
2022-08-22T02:55:34.949Z,6.70
2022-08-22T02:56:37.502Z,6.50
2022-08-22T02:57:36.209Z,9.80
2022-08-22T02:58:32.035Z,7.20
2022-08-22T02:59:13.934Z,5.80
2022-08-22T03:00:07.332Z,7.10
2022-08-22T03:01:03.170Z,7.60
2022-08-22T03:01:41.528Z,10.00
2022-08-22T03:02:33.819Z,5.80
2022-08-22T03:03:26.855Z,7.00
2022-08-22T03:04:21.825Z,5.10
2022-08-22T03:05:02.104Z,7.60
2022-08-22T03:05:38.174Z,6.70
2022-08-22T03:06:44.123Z,6.20
2022-08-22T03:07:20.228Z,5.90
2022-08-22T03:08:02.175Z,5.50
2022-08-22T03:08:47.516Z,8.60
2022-08-22T03:09:40.457Z,8.50
2022-08-22T03:10:23.616Z,9.70
2022-08-22T03:11:18.242Z,7.00
2022-08-22T03:12:14.468Z,6.20
2022-08-22T03:12:57.322Z,8.40
2022-08-22T03:14:07.706Z,6.90
2022-08-22T03:15:09.195Z,6.30
2022-08-22T03:16:26.996Z,7.60
2022-08-22T03:17:19.257Z,5.40
2022-08-22T03:17:58.168Z,7.20
2022-08-22T03:18:55.350Z,6.10
2022-08-22T03:19:56.076Z,6.30
2022-08-22T03:21:15.815Z,7.40
2022-08-22T03:22:15.654Z,6.10
2022-08-22T03:23:00.333Z,7.40
2022-08-22T03:23:46.915Z,9.60
2022-08-22T03:24:31.765Z,6.70
2022-08-22T03:25:20.949Z,6.00
2022-08-22T03:26:18.566Z,6.10
2022-08-22T03:26:57.067Z,6.40
2022-08-22T03:27:41.076Z,7.30
2022-08-22T03:28:27.353Z,6.20
2022-08-22T03:29:14.816Z,6.00
2022-08-22T03:30:11.898Z,7.50
2022-08-22T03:31:00.707Z,7.90
2022-08-22T03:31:36.462Z,5.60
2022-08-22T03:32:20.372Z,7.20
2022-08-22T03:33:13.295Z,6.70
2022-08-22T03:34:17.155Z,9.40
2022-08-22T03:35:04.897Z,7.90
2022-08-22T03:35:47.364Z,7.10
2022-08-22T03:36:29.394Z,7.40
2022-08-22T03:37:20.949Z,8.30
2022-08-22T03:38:09.345Z,7.50
2022-08-22T03:39:17.124Z,5.60
2022-08-22T03:40:31.843Z,6.10
2022-08-22T03:41:24.363Z,7.60
2022-08-22T03:42:20.464Z,6.90
2022-08-22T03:43:31.048Z,5.50
2022-08-22T03:44:10.235Z,7.90
2022-08-22T03:45:17.710Z,8.10
2022-08-22T03:45:56.732Z,6.90
2022-08-22T03:46:51.676Z,6.40
2022-08-22T03:48:13.664Z,8.90
2022-08-22T03:49:06.065Z,6.80
2022-08-22T03:50:26.978Z,9.20
2022-08-22T03:51:03.240Z,7.10
2022-08-22T03:51:58.335Z,6.90
2022-08-22T03:53:19.110Z,9.20
2022-08-22T03:53:58.621Z,5.90
2022-08-22T03:54:54.235Z,8.70
2022-08-22T03:56:05.039Z,9.30
2022-08-22T03:56:58.901Z,8.70
2022-08-22T03:57:49.051Z,9.70
2022-08-22T03:58:31.524Z,7.10
2022-08-22T03:59:29.918Z,9.40
2022-08-22T04:00:43.420Z,7.90
2022-08-22T04:01:44.510Z,7.40
2022-08-22T04:02:42.018Z,7.50
2022-08-22T04:03:35.576Z,9.80
2022-08-22T04:04:11.523Z,6.60
2022-08-22T04:05:19.410Z,8.90
2022-08-22T04:06:16.456Z,6.80
2022-08-22T04:07:28.320Z,9.10
2022-08-22T04:08:09.935Z,7.60
2022-08-22T04:09:20.383Z,7.40
2022-08-22T04:10:15.586Z,6.90
2022-08-22T04:11:19.574Z,8.60
2022-08-22T04:12:09.224Z,7.60
2022-08-22T04:13:15.698Z,6.80
2022-08-22T04:14:04.853Z,8.80
2022-08-22T04:14:40.888Z,13.80
2022-08-22T04:15:50.523Z,11.30
2022-08-22T04:17:01.807Z,8.90
2022-08-22T04:18:01.153Z,12.40
2022-08-22T04:18:40.709Z,17.90
2022-08-22T04:19:49.692Z,252.30
2022-08-22T04:20:43.388Z,172.30
2022-08-22T04:21:54.356Z,41.10
2022-08-22T04:22:54.174Z,33.60
2022-08-22T04:23:30.208Z,53.70
2022-08-22T04:24:18.549Z,35.10
2022-08-22T04:25:30.489Z,30.90
2022-08-22T04:27:12.427Z,25.20
2022-08-22T04:27:56.082Z,24.80
2022-08-22T04:28:40.257Z,19.90
2022-08-22T04:29:21.399Z,12.70
2022-08-22T04:30:06.091Z,11.20
2022-08-22T04:31:01.397Z,13.40
2022-08-22T04:31:46.472Z,11.50
2022-08-22T04:32:39.816Z,13.40
2022-08-22T04:33:33.161Z,11.40
2022-08-22T04:34:33.699Z,9.80
2022-08-22T04:35:09.630Z,9.10
2022-08-22T04:35:51.628Z,11.20
2022-08-22T04:36:39.654Z,10.90
2022-08-22T04:37:28.049Z,12.20
2022-08-22T04:38:14.667Z,12.30
2022-08-22T04:39:09.607Z,11.50
2022-08-22T04:39:56.172Z,12.00
2022-08-22T04:40:38.869Z,38.70
2022-08-22T04:41:41.542Z,31.00
2022-08-22T04:42:32.817Z,38.10
2022-08-22T04:43:38.535Z,24.30
2022-08-22T04:44:17.614Z,12.50
2022-08-22T04:45:01.083Z,13.10
2022-08-22T04:45:48.858Z,10.80
2022-08-22T04:46:36.862Z,11.10
2022-08-22T04:47:53.812Z,11.60
2022-08-22T04:48:38.417Z,9.60
2022-08-22T04:49:40.699Z,10.40
2022-08-22T04:50:16.805Z,11.10
2022-08-22T04:50:55.236Z,8.70
2022-08-22T04:51:40.868Z,10.90
2022-08-22T04:52:36.889Z,45.90
2022-08-22T04:53:34.343Z,70.00
2022-08-22T04:54:28.661Z,30.10
2022-08-22T04:55:20.605Z,26.40
2022-08-22T04:56:12.064Z,17.70
2022-08-22T04:57:12.994Z,18.10
2022-08-22T04:58:12.278Z,14.40
2022-08-22T04:58:55.758Z,11.80
2022-08-22T04:59:31.258Z,11.20
2022-08-22T05:00:10.944Z,12.10
2022-08-22T05:01:12.476Z,11.50
2022-08-22T05:01:54.891Z,10.00
2022-08-22T05:02:28.894Z,9.10
2022-08-22T05:03:04.513Z,9.40
2022-08-22T05:03:46.078Z,11.10
2022-08-22T05:04:24.613Z,8.90
2022-08-22T05:05:13.150Z,9.40
2022-08-22T05:05:48.764Z,9.00
2022-08-22T05:06:26.595Z,9.50
2022-08-22T05:07:22.105Z,9.70
2022-08-22T05:07:59.207Z,9.50
2022-08-22T05:08:39.590Z,11.50
2022-08-22T05:09:21.180Z,9.80
2022-08-22T05:10:11.630Z,10.40
2022-08-22T05:10:49.882Z,9.60
2022-08-22T05:11:24.988Z,10.20
2022-08-22T05:12:09.286Z,10.30
2022-08-22T05:12:50.015Z,9.80
2022-08-22T05:14:14.022Z,11.70
2022-08-22T05:15:01.930Z,10.30
2022-08-22T05:15:38.718Z,10.20
2022-08-22T05:16:19.196Z,10.20
2022-08-22T05:16:56.017Z,11.20
2022-08-22T05:17:32.539Z,10.50
2022-08-22T05:18:15.158Z,10.60
2022-08-22T05:18:55.087Z,9.30
2022-08-22T05:19:34.932Z,10.10
2022-08-22T05:20:15.897Z,9.20
2022-08-22T05:20:51.725Z,13.10
2022-08-22T05:21:31.490Z,9.90
2022-08-22T05:22:07.344Z,10.40
2022-08-22T05:22:44.514Z,10.80
2022-08-22T05:23:29.486Z,10.20
2022-08-22T05:24:28.330Z,10.30
2022-08-22T05:25:11.366Z,10.70
2022-08-22T05:25:49.256Z,10.20
2022-08-22T05:26:23.115Z,12.20
2022-08-22T05:26:57.960Z,10.80
2022-08-22T05:27:35.018Z,14.00
2022-08-22T05:28:19.320Z,9.30
2022-08-22T05:28:59.469Z,11.80
2022-08-22T05:29:33.425Z,12.20
2022-08-22T05:30:13.381Z,11.20
2022-08-22T05:30:48.674Z,11.20
2022-08-22T05:31:31.316Z,14.00
2022-08-22T05:32:08.014Z,12.00
2022-08-22T05:32:53.702Z,10.60
2022-08-22T05:33:45.510Z,12.40
2022-08-22T05:34:29.358Z,11.20
2022-08-22T05:35:06.001Z,10.10
2022-08-22T05:35:48.681Z,10.10
2022-08-22T05:36:27.990Z,12.10
2022-08-22T05:37:14.442Z,12.40
2022-08-22T05:37:52.066Z,11.30
2022-08-22T05:38:32.010Z,10.80
2022-08-22T05:39:19.954Z,11.40
2022-08-22T05:39:59.353Z,10.70
2022-08-22T05:40:36.288Z,11.30
2022-08-22T05:41:20.451Z,11.80
2022-08-22T05:42:00.473Z,11.60
2022-08-22T05:42:37.714Z,11.10
2022-08-22T05:43:12.908Z,13.10
2022-08-22T05:43:49.576Z,14.30
2022-08-22T05:44:30.959Z,12.40
2022-08-22T05:45:11.478Z,10.90
2022-08-22T05:45:47.496Z,11.40
2022-08-22T05:46:27.094Z,12.30
2022-08-22T05:47:28.321Z,13.20
2022-08-22T05:48:21.070Z,12.90
2022-08-22T05:49:01.285Z,13.20
2022-08-22T05:49:45.220Z,12.00
2022-08-22T05:50:43.499Z,11.70
2022-08-22T05:51:22.499Z,12.70
2022-08-22T05:52:23.206Z,14.30
2022-08-22T05:53:12.835Z,12.50
2022-08-22T05:53:51.596Z,12.80
2022-08-22T05:54:34.471Z,12.40
2022-08-22T05:55:29.090Z,11.60
2022-08-22T05:56:14.220Z,13.20
2022-08-22T05:57:23.256Z,11.20
2022-08-22T05:58:34.017Z,25.90
2022-08-22T05:59:23.708Z,12.40
2022-08-22T06:00:11.187Z,16.70
2022-08-22T06:00:52.198Z,13.60
2022-08-22T06:01:28.330Z,16.90
2022-08-22T06:02:14.403Z,16.30
2022-08-22T06:03:28.813Z,11.10
2022-08-22T06:04:16.320Z,15.00
2022-08-22T06:05:01.349Z,14.30
2022-08-22T06:05:41.415Z,14.50
2022-08-22T06:06:18.676Z,19.00
2022-08-22T06:07:17.774Z,12.70
2022-08-22T06:07:53.988Z,14.00
2022-08-22T06:08:41.441Z,14.60
2022-08-22T06:09:20.231Z,15.70
2022-08-22T06:09:59.380Z,17.70
2022-08-22T06:10:48.071Z,15.50
2022-08-22T06:11:32.732Z,12.80
2022-08-22T06:12:22.238Z,15.20
2022-08-22T06:13:03.546Z,11.90
2022-08-22T06:13:42.726Z,10.30
2022-08-22T06:14:46.328Z,10.70
2022-08-22T06:15:28.948Z,11.80
2022-08-22T06:16:17.505Z,12.30
2022-08-22T06:17:05.843Z,12.10
2022-08-22T06:17:44.587Z,14.90
2022-08-22T06:18:23.123Z,11.80
2022-08-22T06:18:59.491Z,10.50
2022-08-22T06:19:40.283Z,11.10
2022-08-22T06:20:57.042Z,13.70
2022-08-22T06:21:39.627Z,16.40
2022-08-22T06:22:21.908Z,16.40
2022-08-22T06:22:59.922Z,11.40
2022-08-22T06:23:51.146Z,14.40
2022-08-22T06:25:14.841Z,11.10
2022-08-22T06:25:50.711Z,12.80
2022-08-22T06:26:28.836Z,11.30
2022-08-22T06:27:07.922Z,15.80
2022-08-22T06:27:43.178Z,10.60
2022-08-22T06:28:26.188Z,11.00
2022-08-22T06:29:01.923Z,11.10
2022-08-22T06:29:45.195Z,12.10
2022-08-22T06:30:20.941Z,18.50
2022-08-22T06:30:56.493Z,32.00
2022-08-22T06:31:34.697Z,20.70
2022-08-22T06:32:13.958Z,20.90
2022-08-22T06:32:59.782Z,13.20
2022-08-22T06:33:42.334Z,12.80
2022-08-22T06:34:28.886Z,13.20
2022-08-22T06:35:11.536Z,11.30
2022-08-22T06:36:08.029Z,12.40
2022-08-22T06:36:46.625Z,11.20
2022-08-22T06:37:32.160Z,12.00
2022-08-22T06:38:05.908Z,14.10
2022-08-22T06:39:07.759Z,14.30
2022-08-22T06:39:46.080Z,15.90
2022-08-22T06:40:20.175Z,12.50
2022-08-22T06:40:54.946Z,14.60
2022-08-22T06:41:33.450Z,17.60
2022-08-22T06:42:16.522Z,11.40
2022-08-22T06:42:52.357Z,13.50
2022-08-22T06:43:26.579Z,13.00
2022-08-22T06:44:02.583Z,10.80
2022-08-22T06:44:44.407Z,13.00
2022-08-22T06:45:29.932Z,11.60
2022-08-22T06:46:04.028Z,13.20
2022-08-22T06:46:38.621Z,12.80
2022-08-22T06:47:23.646Z,11.60
2022-08-22T06:48:06.165Z,17.40
2022-08-22T06:48:41.643Z,35.50
2022-08-22T06:49:16.551Z,46.80
2022-08-22T06:50:03.940Z,63.90
2022-08-22T06:50:41.326Z,64.60
2022-08-22T06:51:19.252Z,23.90
2022-08-22T06:51:53.997Z,18.10
2022-08-22T06:52:30.110Z,16.00
2022-08-22T06:53:58.594Z,12.90
2022-08-22T06:54:37.560Z,12.30
2022-08-22T06:55:11.330Z,11.90
2022-08-22T06:55:49.931Z,14.00
2022-08-22T06:56:32.884Z,10.40
2022-08-22T06:57:12.677Z,12.60
2022-08-22T06:57:54.705Z,11.20
2022-08-22T06:58:45.006Z,12.60
2022-08-22T06:59:24.903Z,10.30
2022-08-22T07:00:00.800Z,12.20
2022-08-22T07:00:36.063Z,15.90
2022-08-22T07:01:23.370Z,12.20
2022-08-22T07:02:06.011Z,10.90
2022-08-22T07:02:48.120Z,14.40
2022-08-22T07:03:27.222Z,16.50
2022-08-22T07:04:09.540Z,13.80
2022-08-22T07:04:43.395Z,13.20
2022-08-22T07:05:30.098Z,12.80
2022-08-22T07:06:05.090Z,11.20
2022-08-22T07:06:50.648Z,10.50
2022-08-22T07:07:27.517Z,12.80
2022-08-22T07:08:10.223Z,11.10
2022-08-22T07:08:44.385Z,15.60
2022-08-22T07:09:31.567Z,11.20
2022-08-22T07:10:05.754Z,12.80
2022-08-22T07:11:17.959Z,13.40
2022-08-22T07:11:53.900Z,12.30
2022-08-22T07:12:31.508Z,17.60
2022-08-22T07:13:08.689Z,17.60
2022-08-22T07:13:48.057Z,17.30
2022-08-22T07:14:32.261Z,13.90
2022-08-22T07:15:22.756Z,17.70
2022-08-22T07:15:59.508Z,14.50
2022-08-22T07:16:43.924Z,17.70
2022-08-22T07:17:30.165Z,17.40
2022-08-22T07:18:08.186Z,15.50
2022-08-22T07:18:50.432Z,14.90
2022-08-22T07:19:37.225Z,15.50
2022-08-22T07:20:23.907Z,16.90
2022-08-22T07:21:04.561Z,15.40
2022-08-22T07:21:47.539Z,15.10
2022-08-22T07:22:30.848Z,14.80
2022-08-22T07:23:12.704Z,14.90
2022-08-22T07:23:48.473Z,13.50
2022-08-22T07:24:26.559Z,15.20
2022-08-22T07:25:14.635Z,12.50
2022-08-22T07:26:06.753Z,13.30
2022-08-22T07:26:54.647Z,13.30
2022-08-22T07:27:37.742Z,15.60
2022-08-22T07:28:36.527Z,12.10
2022-08-22T07:29:42.139Z,11.00
2022-08-22T07:30:27.406Z,15.50
2022-08-22T07:31:35.115Z,15.30
2022-08-22T07:32:27.871Z,21.10
2022-08-22T07:33:23.683Z,20.60
2022-08-22T07:34:04.979Z,16.00
2022-08-22T07:35:18.502Z,17.70
2022-08-22T07:36:07.324Z,18.40
2022-08-22T07:37:06.112Z,20.40
2022-08-22T07:38:08.208Z,15.80
2022-08-22T07:39:07.789Z,17.80
2022-08-22T07:40:00.383Z,18.00
2022-08-22T07:40:38.937Z,18.30
2022-08-22T07:41:18.800Z,18.60
2022-08-22T07:41:59.953Z,16.00
2022-08-22T07:42:55.833Z,19.20
2022-08-22T07:43:47.769Z,17.30
2022-08-22T07:44:25.730Z,13.70
2022-08-22T07:45:16.105Z,15.80
2022-08-22T07:45:57.090Z,18.00
2022-08-22T07:46:34.472Z,24.20
2022-08-22T07:47:17.979Z,17.90
2022-08-22T07:48:06.169Z,18.90
2022-08-22T07:49:08.084Z,32.00
2022-08-22T07:50:07.444Z,28.10
2022-08-22T07:50:52.490Z,19.70
2022-08-22T07:51:52.696Z,17.90
2022-08-22T07:52:32.619Z,12.50
2022-08-22T07:53:20.550Z,15.90
2022-08-22T07:54:02.236Z,18.10
2022-08-22T07:54:45.883Z,16.40
2022-08-22T07:55:23.183Z,15.30
2022-08-22T07:56:00.138Z,14.50
2022-08-22T07:56:42.745Z,12.00
2022-08-22T07:57:23.140Z,11.30
2022-08-22T07:58:03.947Z,14.10
2022-08-22T07:58:42.208Z,14.60
2022-08-22T07:59:20.253Z,14.40
2022-08-22T07:59:56.572Z,20.90
2022-08-22T08:00:31.812Z,20.80
2022-08-22T08:01:09.178Z,22.30
2022-08-22T08:02:05.499Z,13.50
2022-08-22T08:02:48.468Z,11.70
2022-08-22T08:03:24.053Z,13.40
2022-08-22T08:04:02.604Z,12.20
2022-08-22T08:04:40.174Z,12.90
2022-08-22T08:05:16.069Z,16.00
2022-08-22T08:05:50.443Z,13.00
2022-08-22T08:06:25.796Z,11.20
2022-08-22T08:07:02.476Z,17.20
2022-08-22T08:07:35.956Z,11.40
2022-08-22T08:08:16.675Z,14.10
2022-08-22T08:08:51.500Z,11.20
2022-08-22T08:09:28.268Z,13.90
2022-08-22T08:10:13.056Z,14.00
2022-08-22T08:10:50.996Z,12.00
2022-08-22T08:11:28.910Z,15.60
2022-08-22T08:12:06.298Z,14.90
2022-08-22T08:12:56.117Z,12.50
2022-08-22T08:13:40.456Z,15.40
2022-08-22T08:14:15.784Z,11.20
2022-08-22T08:14:53.533Z,11.50
2022-08-22T08:15:27.463Z,12.70
2022-08-22T08:16:01.766Z,11.80
2022-08-22T08:16:55.035Z,14.20
2022-08-22T08:17:33.093Z,11.90
2022-08-22T08:18:13.638Z,15.20
2022-08-22T08:18:50.977Z,12.30
2022-08-22T08:19:25.608Z,11.40
2022-08-22T08:20:04.251Z,16.00
2022-08-22T08:20:38.104Z,11.10
2022-08-22T08:21:31.885Z,13.30
2022-08-22T08:22:06.266Z,12.50
2022-08-22T08:22:43.665Z,13.60
2022-08-22T08:23:23.357Z,16.20
2022-08-22T08:23:59.146Z,14.00
2022-08-22T08:24:42.336Z,20.30
2022-08-22T08:25:25.995Z,14.20
2022-08-22T08:26:17.629Z,13.20
2022-08-22T08:27:21.753Z,13.50
2022-08-22T08:28:16.383Z,14.50
2022-08-22T08:28:55.474Z,14.90
2022-08-22T08:29:30.099Z,29.90
2022-08-22T08:30:15.286Z,15.00
2022-08-22T08:31:07.941Z,13.30
2022-08-22T08:31:43.391Z,17.20
2022-08-22T08:32:19.000Z,18.90
2022-08-22T08:33:24.454Z,17.00
2022-08-22T08:33:59.232Z,13.60
2022-08-22T08:34:33.817Z,13.80
2022-08-22T08:35:32.079Z,19.00
2022-08-22T08:36:16.342Z,16.60
2022-08-22T08:36:57.275Z,12.90
2022-08-22T08:38:24.466Z,11.30
2022-08-22T08:39:14.388Z,14.80
2022-08-22T08:39:56.439Z,16.90
2022-08-22T08:40:33.078Z,14.80
2022-08-22T08:41:31.654Z,16.40
2022-08-22T08:43:08.996Z,14.10
2022-08-22T08:44:09.287Z,14.00
2022-08-22T08:45:07.705Z,15.00
2022-08-22T08:45:50.138Z,14.00
2022-08-22T08:46:51.819Z,12.50
2022-08-22T08:47:39.791Z,16.60
2022-08-22T08:48:50.513Z,12.30
2022-08-22T08:49:46.806Z,14.60
2022-08-22T08:50:39.189Z,22.20
2022-08-22T08:51:37.938Z,13.10
2022-08-22T08:52:52.991Z,10.30
2022-08-22T08:53:32.687Z,14.70
2022-08-22T08:54:40.217Z,10.20
2022-08-22T08:55:38.547Z,15.40
2022-08-22T08:56:47.116Z,11.10
2022-08-22T08:58:06.666Z,9.90
2022-08-22T08:59:10.247Z,10.20
2022-08-22T09:00:02.434Z,12.80
2022-08-22T09:01:07.233Z,14.70
2022-08-22T09:01:56.776Z,16.30
2022-08-22T09:02:46.131Z,12.10
2022-08-22T09:03:47.135Z,13.40
2022-08-22T09:04:20.368Z,13.20
2022-08-22T09:05:19.569Z,14.80
2022-08-22T09:06:08.195Z,11.60
2022-08-22T09:07:01.470Z,12.00
2022-08-22T09:07:57.449Z,13.70
2022-08-22T09:08:48.623Z,10.40
2022-08-22T09:09:45.085Z,13.40
2022-08-22T09:10:43.485Z,13.80
2022-08-22T09:11:54.221Z,11.90
2022-08-22T09:13:12.362Z,11.90
2022-08-22T09:13:55.257Z,20.40
2022-08-22T09:14:49.851Z,10.10
2022-08-22T09:15:58.547Z,12.00
2022-08-22T09:16:51.792Z,11.50
2022-08-22T09:17:31.868Z,13.40
2022-08-22T09:18:18.175Z,11.10
2022-08-22T09:19:00.906Z,12.50
2022-08-22T09:20:17.998Z,16.30
2022-08-22T09:21:17.051Z,16.40
2022-08-22T09:22:50.581Z,11.00
2022-08-22T09:23:49.305Z,10.60
2022-08-22T09:25:08.674Z,10.90
2022-08-22T09:25:59.952Z,14.40
2022-08-22T09:26:51.116Z,13.30
2022-08-22T09:27:40.027Z,12.70
2022-08-22T09:28:34.116Z,14.80
2022-08-22T09:29:30.247Z,13.50
2022-08-22T09:30:11.622Z,14.50
2022-08-22T09:30:58.184Z,11.00
2022-08-22T09:31:55.852Z,19.00
2022-08-22T09:33:01.246Z,14.70
2022-08-22T09:33:47.113Z,11.20
2022-08-22T09:34:35.275Z,11.70
2022-08-22T09:35:17.307Z,12.40
2022-08-22T09:37:04.780Z,12.70
2022-08-22T09:38:24.478Z,12.40
2022-08-22T09:39:12.601Z,10.20
2022-08-22T09:39:53.670Z,13.30
2022-08-22T09:41:18.112Z,15.00
2022-08-22T09:42:11.853Z,14.90
2022-08-22T09:43:13.499Z,14.10
2022-08-22T09:44:14.420Z,12.40
2022-08-22T09:45:19.623Z,11.70
2022-08-22T09:45:52.864Z,9.80
2022-08-22T09:46:36.687Z,14.10
2022-08-22T09:47:24.635Z,14.50
2022-08-22T09:48:26.686Z,9.60
2022-08-22T09:49:07.086Z,10.80
2022-08-22T09:50:06.527Z,10.00
2022-08-22T09:51:32.404Z,11.70
2022-08-22T09:52:33.846Z,10.10
2022-08-22T09:53:18.053Z,8.70
2022-08-22T09:54:13.501Z,18.40
2022-08-22T09:54:55.111Z,11.70
2022-08-22T09:56:11.700Z,16.60
2022-08-22T09:57:01.138Z,9.60
2022-08-22T09:57:48.008Z,9.60
2022-08-22T09:58:46.746Z,12.30
2022-08-22T09:59:39.138Z,12.20
2022-08-22T10:00:18.127Z,9.30
2022-08-22T10:01:08.593Z,9.80
2022-08-22T10:02:20.539Z,11.50
2022-08-22T10:03:06.299Z,9.60
2022-08-22T10:03:46.364Z,10.20
2022-08-22T10:04:45.099Z,8.70
2022-08-22T10:05:57.174Z,10.00
2022-08-22T10:06:47.535Z,10.00
2022-08-22T10:07:37.457Z,8.50
2022-08-22T10:08:37.476Z,10.80
2022-08-22T10:09:26.403Z,9.10
2022-08-22T10:10:04.708Z,11.50
2022-08-22T10:10:56.147Z,10.30
2022-08-22T10:11:53.861Z,11.80
2022-08-22T10:12:36.103Z,9.30
2022-08-22T10:13:21.715Z,13.10
2022-08-22T10:14:07.121Z,9.10
2022-08-22T10:15:02.830Z,12.40
2022-08-22T10:15:56.696Z,9.80
2022-08-22T10:16:49.834Z,11.70
2022-08-22T10:17:31.800Z,7.30
2022-08-22T10:18:43.946Z,7.50
2022-08-22T10:19:42.993Z,10.70
2022-08-22T10:20:25.341Z,9.10
2022-08-22T10:21:20.436Z,9.60
2022-08-22T10:22:29.942Z,7.70
2022-08-22T10:23:27.737Z,10.00
2022-08-22T10:24:36.090Z,7.60
2022-08-22T10:25:34.176Z,11.10
2022-08-22T10:26:08.409Z,9.40
2022-08-22T10:26:53.409Z,13.00
2022-08-22T10:27:52.911Z,8.80
2022-08-22T10:28:53.004Z,9.80
2022-08-22T10:29:56.562Z,8.90
2022-08-22T10:30:44.883Z,10.70
2022-08-22T10:31:30.993Z,8.30
2022-08-22T10:32:26.929Z,9.90
2022-08-22T10:33:29.063Z,10.50
2022-08-22T10:34:07.965Z,10.50
2022-08-22T10:34:47.484Z,9.40
2022-08-22T10:35:33.645Z,9.50
2022-08-22T10:36:12.278Z,12.50
2022-08-22T10:37:08.876Z,11.80
2022-08-22T10:38:10.729Z,11.50
2022-08-22T10:38:56.435Z,12.20
2022-08-22T10:39:41.342Z,9.80
2022-08-22T10:40:37.228Z,12.40
2022-08-22T10:41:30.867Z,10.60
2022-08-22T10:42:39.239Z,11.30